Terminal Aerodrome Forecast
Issued by NWS

Home | Current Version | Previous Version | Text Only | Print | Product List | Glossary On
Versions: 1 2 3 4 5 6 7 8 9 10 11 12 13 14 15 16 17 18 19 20 21 22 23 24 25 26 27 28 29 30 31 32 33 34 35 36 37 38 39 40 41 42 43 44 45 46 47
709
FTUS41 KBOX 271126
TAFACK
TAF
KACK 271126Z 2712/2812 18006KT 1/4SM FG OVC002
     FM271300 18008KT 2SM BR BKN004
     FM271400 19007KT 4SM BR BKN008
     FM271600 20008KT P6SM FEW008 BKN100
     FM272100 23014G21KT P6SM SCT100
     FM280500 23012KT P6SM SCT100 WS020/24040KT
     FM280800 23012KT 5SM BR SCT070 WS020/25040KT
     FM281000 23012KT 4SM BR SCT045
     FM281100 23012KT 5SM BR BKN060=

USA.gov is the U.S. government's official web portal to all federal, state and local government web resources and services.